sensor_id;sensor_type;location;lat;lon;timestamp;temperature;humidity
1225;DHT22;602;48.000;7.840;2024-02-26T00:02:07;11.30;99.90
1225;DHT22;602;48.000;7.840;2024-02-26T00:04:34;11.20;99.90
1225;DHT22;602;48.000;7.840;2024-02-26T00:07:01;11.20;99.90
1225;DHT22;602;48.000;7.840;2024-02-26T00:09:28;11.20;99.90
1225;DHT22;602;48.000;7.840;2024-02-26T00:11:55;11.10;99.90
1225;DHT22;602;48.000;7.840;2024-02-26T00:14:23;11.10;99.90
1225;DHT22;602;48.000;7.840;2024-02-26T00:16:50;11.10;99.90
1225;DHT22;602;48.000;7.840;2024-02-26T00:19:18;11.00;99.90
1225;DHT22;602;48.000;7.840;2024-02-26T00:21:45;11.00;99.90
1225;DHT22;602;48.000;7.840;2024-02-26T00:24:12;11.00;99.90
1225;DHT22;602;48.000;7.840;2024-02-26T00:26:39;10.80;99.90
1225;DHT22;602;48.000;7.840;2024-02-26T00:29:06;10.80;99.90
1225;DHT22;602;48.000;7.840;2024-02-26T00:31:32;10.70;99.90
1225;DHT22;602;48.000;7.840;2024-02-26T00:34:00;10.70;99.90
1225;DHT22;602;48.000;7.840;2024-02-26T00:36:28;10.70;99.90
1225;DHT22;602;48.000;7.840;2024-02-26T00:38:55;10.50;99.90
1225;DHT22;602;48.000;7.840;2024-02-26T00:41:22;10.30;99.90
1225;DHT22;602;48.000;7.840;2024-02-26T00:43:49;10.10;99.90
1225;DHT22;602;48.000;7.840;2024-02-26T00:46:16;10.10;99.90
1225;DHT22;602;48.000;7.840;2024-02-26T00:48:43;10.10;99.90
1225;DHT22;602;48.000;7.840;2024-02-26T00:51:10;10.00;99.90
1225;DHT22;602;48.000;7.840;2024-02-26T00:53:38;10.10;99.90
1225;DHT22;602;48.000;7.840;2024-02-26T00:56:05;10.30;99.90
1225;DHT22;602;48.000;7.840;2024-02-26T00:58:32;10.30;99.90
1225;DHT22;602;48.000;7.840;2024-02-26T01:00:59;10.10;99.90
1225;DHT22;602;48.000;7.840;2024-02-26T01:03:26;10.10;99.90
1225;DHT22;602;48.000;7.840;2024-02-26T01:05:53;10.20;99.90
1225;DHT22;602;48.000;7.840;2024-02-26T01:08:19;10.20;99.90
1225;DHT22;602;48.000;7.840;2024-02-26T01:10:48;10.30;99.90
1225;DHT22;602;48.000;7.840;2024-02-26T01:13:14;10.40;99.90
1225;DHT22;602;48.000;7.840;2024-02-26T01:15:41;10.30;99.90
1225;DHT22;602;48.000;7.840;2024-02-26T01:18:09;10.30;99.90
1225;DHT22;602;48.000;7.840;2024-02-26T01:20:36;10.30;99.90
1225;DHT22;602;48.000;7.840;2024-02-26T01:23:03;10.40;99.90
1225;DHT22;602;48.000;7.840;2024-02-26T01:25:30;10.40;99.90
1225;DHT22;602;48.000;7.840;2024-02-26T01:27:58;10.30;99.90
1225;DHT22;602;48.000;7.840;2024-02-26T01:30:25;10.10;99.90
1225;DHT22;602;48.000;7.840;2024-02-26T01:32:52;10.10;99.90
1225;DHT22;602;48.000;7.840;2024-02-26T01:35:19;10.20;99.90
1225;DHT22;602;48.000;7.840;2024-02-26T01:37:46;10.10;99.90
1225;DHT22;602;48.000;7.840;2024-02-26T01:40:13;10.00;99.90
1225;DHT22;602;48.000;7.840;2024-02-26T01:42:43;10.00;99.90
1225;DHT22;602;48.000;7.840;2024-02-26T01:45:15;9.90;99.90
1225;DHT22;602;48.000;7.840;2024-02-26T01:47:48;9.90;99.90
1225;DHT22;602;48.000;7.840;2024-02-26T01:50:16;9.90;99.90
1225;DHT22;602;48.000;7.840;2024-02-26T01:52:43;9.90;99.90
1225;DHT22;602;48.000;7.840;2024-02-26T01:55:11;9.90;99.90
1225;DHT22;602;48.000;7.840;2024-02-26T01:57:39;9.80;99.90
1225;DHT22;602;48.000;7.840;2024-02-26T02:00:07;9.70;99.90
1225;DHT22;602;48.000;7.840;2024-02-26T02:02:36;9.80;99.90
1225;DHT22;602;48.000;7.840;2024-02-26T02:05:05;9.90;99.90
1225;DHT22;602;48.000;7.840;2024-02-26T02:07:32;9.90;99.90
1225;DHT22;602;48.000;7.840;2024-02-26T02:09:59;10.00;99.90
1225;DHT22;602;48.000;7.840;2024-02-26T02:12:27;10.00;99.90
1225;DHT22;602;48.000;7.840;2024-02-26T02:14:54;9.90;99.90
1225;DHT22;602;48.000;7.840;2024-02-26T02:17:21;10.00;99.90
1225;DHT22;602;48.000;7.840;2024-02-26T02:19:49;10.00;99.90
1225;DHT22;602;48.000;7.840;2024-02-26T02:22:18;10.00;99.90
1225;DHT22;602;48.000;7.840;2024-02-26T02:24:45;10.00;99.90
1225;DHT22;602;48.000;7.840;2024-02-26T02:27:12;10.10;99.90
1225;DHT22;602;48.000;7.840;2024-02-26T02:29:39;10.10;99.90
1225;DHT22;602;48.000;7.840;2024-02-26T02:32:06;10.10;99.90
1225;DHT22;602;48.000;7.840;2024-02-26T02:34:33;10.10;99.90
1225;DHT22;602;48.000;7.840;2024-02-26T02:37:00;10.10;99.90
1225;DHT22;602;48.000;7.840;2024-02-26T02:39:28;10.20;99.90
1225;DHT22;602;48.000;7.840;2024-02-26T02:41:55;10.10;99.90
1225;DHT22;602;48.000;7.840;2024-02-26T02:44:22;10.20;99.90
1225;DHT22;602;48.000;7.840;2024-02-26T02:46:49;10.30;99.90
1225;DHT22;602;48.000;7.840;2024-02-26T02:49:17;10.20;99.90
1225;DHT22;602;48.000;7.840;2024-02-26T02:51:44;10.20;99.90
1225;DHT22;602;48.000;7.840;2024-02-26T02:54:11;10.10;99.90
1225;DHT22;602;48.000;7.840;2024-02-26T02:56:39;10.00;99.90
1225;DHT22;602;48.000;7.840;2024-02-26T02:59:06;9.80;99.90
1225;DHT22;602;48.000;7.840;2024-02-26T03:01:33;9.70;99.90
1225;DHT22;602;48.000;7.840;2024-02-26T03:03:59;9.70;99.90
1225;DHT22;602;48.000;7.840;2024-02-26T03:06:26;9.50;99.90
1225;DHT22;602;48.000;7.840;2024-02-26T03:08:54;9.60;99.90
1225;DHT22;602;48.000;7.840;2024-02-26T03:11:21;9.60;99.90
1225;DHT22;602;48.000;7.840;2024-02-26T03:13:49;9.70;99.90
1225;DHT22;602;48.000;7.840;2024-02-26T03:16:17;9.60;99.90
1225;DHT22;602;48.000;7.840;2024-02-26T03:18:44;9.40;99.90
1225;DHT22;602;48.000;7.840;2024-02-26T03:21:11;9.40;99.90
1225;DHT22;602;48.000;7.840;2024-02-26T03:23:37;9.50;99.90
1225;DHT22;602;48.000;7.840;2024-02-26T03:26:05;9.50;99.90
1225;DHT22;602;48.000;7.840;2024-02-26T03:28:32;9.60;99.90
1225;DHT22;602;48.000;7.840;2024-02-26T03:31:01;9.70;99.90
1225;DHT22;602;48.000;7.840;2024-02-26T03:33:27;9.70;99.90
1225;DHT22;602;48.000;7.840;2024-02-26T03:35:54;9.70;99.90
1225;DHT22;602;48.000;7.840;2024-02-26T03:38:21;9.70;99.90
1225;DHT22;602;48.000;7.840;2024-02-26T03:40:48;9.50;99.90
1225;DHT22;602;48.000;7.840;2024-02-26T03:43:16;9.50;99.90
1225;DHT22;602;48.000;7.840;2024-02-26T03:45:43;9.50;99.90
1225;DHT22;602;48.000;7.840;2024-02-26T03:48:11;9.40;99.90
1225;DHT22;602;48.000;7.840;2024-02-26T03:50:38;9.50;99.90
1225;DHT22;602;48.000;7.840;2024-02-26T03:53:05;9.60;99.90
1225;DHT22;602;48.000;7.840;2024-02-26T03:55:34;9.60;99.90
1225;DHT22;602;48.000;7.840;2024-02-26T03:58:01;9.70;99.90
1225;DHT22;602;48.000;7.840;2024-02-26T04:00:28;9.40;99.90
1225;DHT22;602;48.000;7.840;2024-02-26T04:02:55;9.40;99.90
1225;DHT22;602;48.000;7.840;2024-02-26T04:05:24;9.40;99.90
1225;DHT22;602;48.000;7.840;2024-02-26T04:07:50;9.30;99.90
1225;DHT22;602;48.000;7.840;2024-02-26T04:10:17;9.40;99.90
1225;DHT22;602;48.000;7.840;2024-02-26T04:12:44;9.30;99.90
1225;DHT22;602;48.000;7.840;2024-02-26T04:15:11;9.30;99.90
1225;DHT22;602;48.000;7.840;2024-02-26T04:17:38;9.40;99.90
1225;DHT22;602;48.000;7.840;2024-02-26T04:20:06;9.30;99.90
1225;DHT22;602;48.000;7.840;2024-02-26T04:22:34;9.30;99.90
1225;DHT22;602;48.000;7.840;2024-02-26T04:25:01;9.40;99.90
1225;DHT22;602;48.000;7.840;2024-02-26T04:27:28;9.50;99.90
1225;DHT22;602;48.000;7.840;2024-02-26T04:29:55;9.60;99.90
1225;DHT22;602;48.000;7.840;2024-02-26T04:32:22;9.70;99.90
1225;DHT22;602;48.000;7.840;2024-02-26T04:34:49;9.70;99.90
1225;DHT22;602;48.000;7.840;2024-02-26T04:37:15;9.50;99.90
1225;DHT22;602;48.000;7.840;2024-02-26T04:39:43;9.50;99.90
1225;DHT22;602;48.000;7.840;2024-02-26T04:42:11;9.50;99.90
1225;DHT22;602;48.000;7.840;2024-02-26T04:44:38;9.40;99.90
1225;DHT22;602;48.000;7.840;2024-02-26T04:47:04;9.30;99.90
1225;DHT22;602;48.000;7.840;2024-02-26T04:49:33;9.30;99.90
1225;DHT22;602;48.000;7.840;2024-02-26T04:52:00;9.00;99.90
1225;DHT22;602;48.000;7.840;2024-02-26T04:54:27;9.10;99.90
1225;DHT22;602;48.000;7.840;2024-02-26T04:56:55;9.10;99.90
1225;DHT22;602;48.000;7.840;2024-02-26T04:59:22;9.00;99.90
1225;DHT22;602;48.000;7.840;2024-02-26T05:01:49;9.00;99.90
1225;DHT22;602;48.000;7.840;2024-02-26T05:04:18;9.00;99.90
1225;DHT22;602;48.000;7.840;2024-02-26T05:06:45;9.10;99.90
1225;DHT22;602;48.000;7.840;2024-02-26T05:09:12;9.00;99.90
1225;DHT22;602;48.000;7.840;2024-02-26T05:11:38;9.10;99.90
1225;DHT22;602;48.000;7.840;2024-02-26T05:14:07;9.00;99.90
1225;DHT22;602;48.000;7.840;2024-02-26T05:16:34;9.00;99.90
1225;DHT22;602;48.000;7.840;2024-02-26T05:19:01;8.90;99.90
1225;DHT22;602;48.000;7.840;2024-02-26T05:21:28;8.90;99.90
1225;DHT22;602;48.000;7.840;2024-02-26T05:23:55;8.80;99.90
1225;DHT22;602;48.000;7.840;2024-02-26T05:26:22;8.70;99.90
1225;DHT22;602;48.000;7.840;2024-02-26T05:28:49;8.70;99.90
1225;DHT22;602;48.000;7.840;2024-02-26T05:31:17;8.60;99.90
1225;DHT22;602;48.000;7.840;2024-02-26T05:33:45;8.60;99.90
1225;DHT22;602;48.000;7.840;2024-02-26T05:36:18;8.60;99.90
1225;DHT22;602;48.000;7.840;2024-02-26T05:38:45;8.60;99.90
1225;DHT22;602;48.000;7.840;2024-02-26T05:41:12;8.50;99.90
1225;DHT22;602;48.000;7.840;2024-02-26T05:43:39;8.60;99.90
1225;DHT22;602;48.000;7.840;2024-02-26T05:46:06;8.60;99.90
1225;DHT22;602;48.000;7.840;2024-02-26T05:48:34;8.60;99.90
1225;DHT22;602;48.000;7.840;2024-02-26T05:51:01;8.60;99.90
1225;DHT22;602;48.000;7.840;2024-02-26T05:53:28;8.50;99.90
1225;DHT22;602;48.000;7.840;2024-02-26T05:55:55;8.50;99.90
1225;DHT22;602;48.000;7.840;2024-02-26T05:58:22;8.50;99.90
1225;DHT22;602;48.000;7.840;2024-02-26T06:00:49;8.60;99.90
1225;DHT22;602;48.000;7.840;2024-02-26T06:03:15;8.50;99.90
1225;DHT22;602;48.000;7.840;2024-02-26T06:05:44;8.50;99.90
1225;DHT22;602;48.000;7.840;2024-02-26T06:08:11;8.50;99.90
1225;DHT22;602;48.000;7.840;2024-02-26T06:10:38;8.60;99.90
1225;DHT22;602;48.000;7.840;2024-02-26T06:13:05;8.60;99.90
1225;DHT22;602;48.000;7.840;2024-02-26T06:15:32;8.60;99.90
1225;DHT22;602;48.000;7.840;2024-02-26T06:17:59;8.60;99.90
1225;DHT22;602;48.000;7.840;2024-02-26T06:20:25;8.70;99.90
1225;DHT22;602;48.000;7.840;2024-02-26T06:22:54;8.70;99.90
1225;DHT22;602;48.000;7.840;2024-02-26T06:25:20;8.80;99.90
1225;DHT22;602;48.000;7.840;2024-02-26T06:27:47;8.80;99.90
1225;DHT22;602;48.000;7.840;2024-02-26T06:30:14;8.80;99.90
1225;DHT22;602;48.000;7.840;2024-02-26T06:32:41;8.80;99.90
1225;DHT22;602;48.000;7.840;2024-02-26T06:35:08;8.70;99.90
1225;DHT22;602;48.000;7.840;2024-02-26T06:37:37;8.80;99.90
1225;DHT22;602;48.000;7.840;2024-02-26T06:40:06;8.80;99.90
1225;DHT22;602;48.000;7.840;2024-02-26T06:42:33;8.80;99.90
1225;DHT22;602;48.000;7.840;2024-02-26T06:45:00;8.80;99.90
1225;DHT22;602;48.000;7.840;2024-02-26T06:47:27;8.80;99.90
1225;DHT22;602;48.000;7.840;2024-02-26T06:49:54;8.90;99.90
1225;DHT22;602;48.000;7.840;2024-02-26T06:52:23;8.80;99.90
1225;DHT22;602;48.000;7.840;2024-02-26T06:54:51;8.80;99.90
1225;DHT22;602;48.000;7.840;2024-02-26T06:57:19;8.80;99.90
1225;DHT22;602;48.000;7.840;2024-02-26T06:59:46;8.80;99.90
1225;DHT22;602;48.000;7.840;2024-02-26T07:02:14;8.70;99.90
1225;DHT22;602;48.000;7.840;2024-02-26T07:04:42;8.70;99.90
1225;DHT22;602;48.000;7.840;2024-02-26T07:07:09;8.70;99.90
1225;DHT22;602;48.000;7.840;2024-02-26T07:09:37;8.70;99.90
1225;DHT22;602;48.000;7.840;2024-02-26T07:12:04;8.80;99.90
1225;DHT22;602;48.000;7.840;2024-02-26T07:14:32;8.80;99.90
1225;DHT22;602;48.000;7.840;2024-02-26T07:16:59;8.90;99.90
1225;DHT22;602;48.000;7.840;2024-02-26T07:19:26;8.80;99.90
1225;DHT22;602;48.000;7.840;2024-02-26T07:21:53;8.80;99.90
1225;DHT22;602;48.000;7.840;2024-02-26T07:24:20;8.80;99.90
1225;DHT22;602;48.000;7.840;2024-02-26T07:26:47;8.80;99.90
1225;DHT22;602;48.000;7.840;2024-02-26T07:29:14;8.80;99.90
1225;DHT22;602;48.000;7.840;2024-02-26T07:31:42;8.80;99.90
1225;DHT22;602;48.000;7.840;2024-02-26T07:34:09;8.80;99.90
1225;DHT22;602;48.000;7.840;2024-02-26T07:36:36;8.80;99.90
1225;DHT22;602;48.000;7.840;2024-02-26T07:39:03;8.70;99.90
1225;DHT22;602;48.000;7.840;2024-02-26T07:41:30;8.70;99.90
1225;DHT22;602;48.000;7.840;2024-02-26T07:43:57;8.70;99.90
1225;DHT22;602;48.000;7.840;2024-02-26T07:46:24;8.80;99.90
1225;DHT22;602;48.000;7.840;2024-02-26T07:48:52;8.80;99.90
1225;DHT22;602;48.000;7.840;2024-02-26T07:51:19;8.90;99.90
1225;DHT22;602;48.000;7.840;2024-02-26T07:53:48;9.00;99.90
1225;DHT22;602;48.000;7.840;2024-02-26T07:56:14;9.10;99.90
1225;DHT22;602;48.000;7.840;2024-02-26T07:58:41;9.10;99.90
1225;DHT22;602;48.000;7.840;2024-02-26T08:01:08;9.20;99.90
1225;DHT22;602;48.000;7.840;2024-02-26T08:03:37;9.20;99.90
1225;DHT22;602;48.000;7.840;2024-02-26T08:06:05;9.20;99.90
1225;DHT22;602;48.000;7.840;2024-02-26T08:08:32;9.20;99.90
1225;DHT22;602;48.000;7.840;2024-02-26T08:10:59;9.20;99.90
1225;DHT22;602;48.000;7.840;2024-02-26T08:13:26;9.20;99.90
1225;DHT22;602;48.000;7.840;2024-02-26T08:15:53;9.40;99.90
1225;DHT22;602;48.000;7.840;2024-02-26T08:18:20;9.50;99.90
1225;DHT22;602;48.000;7.840;2024-02-26T08:20:47;9.60;99.90
1225;DHT22;602;48.000;7.840;2024-02-26T08:23:16;9.50;99.90
1225;DHT22;602;48.000;7.840;2024-02-26T08:25:43;9.60;99.90
1225;DHT22;602;48.000;7.840;2024-02-26T08:28:09;9.60;99.90
1225;DHT22;602;48.000;7.840;2024-02-26T08:30:38;9.70;99.90
1225;DHT22;602;48.000;7.840;2024-02-26T08:33:05;9.80;99.90
1225;DHT22;602;48.000;7.840;2024-02-26T08:35:32;9.90;99.90
1225;DHT22;602;48.000;7.840;2024-02-26T08:37:59;10.00;99.90
1225;DHT22;602;48.000;7.840;2024-02-26T08:40:27;10.10;99.90
1225;DHT22;602;48.000;7.840;2024-02-26T08:42:54;10.20;99.90
1225;DHT22;602;48.000;7.840;2024-02-26T08:45:21;10.30;99.90
1225;DHT22;602;48.000;7.840;2024-02-26T08:47:48;10.50;99.90
1225;DHT22;602;48.000;7.840;2024-02-26T08:50:15;10.60;99.90
1225;DHT22;602;48.000;7.840;2024-02-26T08:52:42;10.80;99.90
1225;DHT22;602;48.000;7.840;2024-02-26T08:55:09;11.00;99.90
1225;DHT22;602;48.000;7.840;2024-02-26T08:57:37;11.20;99.90
1225;DHT22;602;48.000;7.840;2024-02-26T09:00:05;11.30;99.90
1225;DHT22;602;48.000;7.840;2024-02-26T09:02:32;11.30;99.90
1225;DHT22;602;48.000;7.840;2024-02-26T09:04:59;11.40;99.90
1225;DHT22;602;48.000;7.840;2024-02-26T09:07:26;11.50;99.90
1225;DHT22;602;48.000;7.840;2024-02-26T09:09:54;11.70;99.90
1225;DHT22;602;48.000;7.840;2024-02-26T09:12:20;11.70;99.90
1225;DHT22;602;48.000;7.840;2024-02-26T09:14:49;11.80;99.90
1225;DHT22;602;48.000;7.840;2024-02-26T09:17:15;11.90;99.90
1225;DHT22;602;48.000;7.840;2024-02-26T09:19:42;11.90;99.90
1225;DHT22;602;48.000;7.840;2024-02-26T09:22:09;12.00;99.90
1225;DHT22;602;48.000;7.840;2024-02-26T09:24:36;12.10;99.90
1225;DHT22;602;48.000;7.840;2024-02-26T09:27:04;12.10;99.90
1225;DHT22;602;48.000;7.840;2024-02-26T09:29:31;12.10;99.90
1225;DHT22;602;48.000;7.840;2024-02-26T09:31:59;12.20;99.90
1225;DHT22;602;48.000;7.840;2024-02-26T09:34:26;12.30;99.90
1225;DHT22;602;48.000;7.840;2024-02-26T09:36:54;12.30;99.90
1225;DHT22;602;48.000;7.840;2024-02-26T09:39:20;12.40;99.90
1225;DHT22;602;48.000;7.840;2024-02-26T09:41:48;12.40;99.90
1225;DHT22;602;48.000;7.840;2024-02-26T09:44:18;12.50;99.90
1225;DHT22;602;48.000;7.840;2024-02-26T09:46:47;12.50;99.90
1225;DHT22;602;48.000;7.840;2024-02-26T09:49:17;12.50;99.90
1225;DHT22;602;48.000;7.840;2024-02-26T09:51:45;12.60;99.90
1225;DHT22;602;48.000;7.840;2024-02-26T09:54:15;12.50;99.90
1225;DHT22;602;48.000;7.840;2024-02-26T09:56:43;12.60;99.90
1225;DHT22;602;48.000;7.840;2024-02-26T09:59:16;12.70;99.90
1225;DHT22;602;48.000;7.840;2024-02-26T10:01:44;12.70;99.90
1225;DHT22;602;48.000;7.840;2024-02-26T10:04:13;12.80;99.90
1225;DHT22;602;48.000;7.840;2024-02-26T10:06:41;12.80;99.90
1225;DHT22;602;48.000;7.840;2024-02-26T10:09:10;12.80;99.90
1225;DHT22;602;48.000;7.840;2024-02-26T10:11:38;12.80;99.90
1225;DHT22;602;48.000;7.840;2024-02-26T10:14:08;12.80;99.90
1225;DHT22;602;48.000;7.840;2024-02-26T10:16:35;12.80;99.90
1225;DHT22;602;48.000;7.840;2024-02-26T10:19:03;12.90;99.90
1225;DHT22;602;48.000;7.840;2024-02-26T10:21:30;12.90;99.90
1225;DHT22;602;48.000;7.840;2024-02-26T10:23:57;13.00;99.90
1225;DHT22;602;48.000;7.840;2024-02-26T10:26:24;13.00;99.90
1225;DHT22;602;48.000;7.840;2024-02-26T10:28:50;13.10;99.90
1225;DHT22;602;48.000;7.840;2024-02-26T10:31:17;13.20;99.90
1225;DHT22;602;48.000;7.840;2024-02-26T10:33:45;13.30;99.90
1225;DHT22;602;48.000;7.840;2024-02-26T10:36:12;13.40;99.90
1225;DHT22;602;48.000;7.840;2024-02-26T10:38:39;13.50;99.90
1225;DHT22;602;48.000;7.840;2024-02-26T10:41:07;13.70;99.90
1225;DHT22;602;48.000;7.840;2024-02-26T10:43:40;13.80;99.90
1225;DHT22;602;48.000;7.840;2024-02-26T10:46:08;14.00;99.90
1225;DHT22;602;48.000;7.840;2024-02-26T10:48:35;14.10;99.90
1225;DHT22;602;48.000;7.840;2024-02-26T10:51:03;14.30;99.90
1225;DHT22;602;48.000;7.840;2024-02-26T10:53:31;14.30;99.90
1225;DHT22;602;48.000;7.840;2024-02-26T10:56:02;14.30;99.90
1225;DHT22;602;48.000;7.840;2024-02-26T10:58:31;14.40;99.90
1225;DHT22;602;48.000;7.840;2024-02-26T11:00:58;14.50;99.90
1225;DHT22;602;48.000;7.840;2024-02-26T11:03:26;14.40;99.90
1225;DHT22;602;48.000;7.840;2024-02-26T11:05:58;14.60;99.90
1225;DHT22;602;48.000;7.840;2024-02-26T11:08:26;14.70;99.90
1225;DHT22;602;48.000;7.840;2024-02-26T11:10:54;14.60;99.90
1225;DHT22;602;48.000;7.840;2024-02-26T11:13:22;14.60;99.90
1225;DHT22;602;48.000;7.840;2024-02-26T11:15:53;14.80;99.90
1225;DHT22;602;48.000;7.840;2024-02-26T11:18:23;15.10;99.90
1225;DHT22;602;48.000;7.840;2024-02-26T11:20:52;15.40;99.90
1225;DHT22;602;48.000;7.840;2024-02-26T11:23:22;15.70;99.90
1225;DHT22;602;48.000;7.840;2024-02-26T11:25:50;15.80;99.90
1225;DHT22;602;48.000;7.840;2024-02-26T11:28:19;16.10;99.90
1225;DHT22;602;48.000;7.840;2024-02-26T11:30:48;16.30;99.90
1225;DHT22;602;48.000;7.840;2024-02-26T11:33:17;16.40;99.90
1225;DHT22;602;48.000;7.840;2024-02-26T11:35:44;16.50;99.90
1225;DHT22;602;48.000;7.840;2024-02-26T11:38:17;16.80;99.90
1225;DHT22;602;48.000;7.840;2024-02-26T11:40:46;16.70;99.90
1225;DHT22;602;48.000;7.840;2024-02-26T11:43:14;16.70;99.90
1225;DHT22;602;48.000;7.840;2024-02-26T11:45:50;16.80;99.90
1225;DHT22;602;48.000;7.840;2024-02-26T11:48:23;16.80;99.90
1225;DHT22;602;48.000;7.840;2024-02-26T11:50:52;16.90;99.90
1225;DHT22;602;48.000;7.840;2024-02-26T11:53:23;17.00;99.90
1225;DHT22;602;48.000;7.840;2024-02-26T11:56:13;17.00;99.90
1225;DHT22;602;48.000;7.840;2024-02-26T11:58:40;17.00;99.90
1225;DHT22;602;48.000;7.840;2024-02-26T12:01:37;17.10;99.90
1225;DHT22;602;48.000;7.840;2024-02-26T12:04:07;17.10;99.90
1225;DHT22;602;48.000;7.840;2024-02-26T12:06:45;17.20;99.90
1225;DHT22;602;48.000;7.840;2024-02-26T12:09:13;17.20;99.90
1225;DHT22;602;48.000;7.840;2024-02-26T12:11:41;17.20;99.90
1225;DHT22;602;48.000;7.840;2024-02-26T12:14:09;17.30;99.90
1225;DHT22;602;48.000;7.840;2024-02-26T12:16:37;17.40;99.90
1225;DHT22;602;48.000;7.840;2024-02-26T12:19:07;17.30;99.90
1225;DHT22;602;48.000;7.840;2024-02-26T12:21:35;17.50;99.90
1225;DHT22;602;48.000;7.840;2024-02-26T12:24:10;17.50;99.90
1225;DHT22;602;48.000;7.840;2024-02-26T12:26:38;17.50;99.90
1225;DHT22;602;48.000;7.840;2024-02-26T12:29:05;17.50;99.90
1225;DHT22;602;48.000;7.840;2024-02-26T12:31:32;17.50;99.90
1225;DHT22;602;48.000;7.840;2024-02-26T12:33:59;17.80;99.90
1225;DHT22;602;48.000;7.840;2024-02-26T12:36:28;17.80;99.90
1225;DHT22;602;48.000;7.840;2024-02-26T12:38:55;17.80;99.90
1225;DHT22;602;48.000;7.840;2024-02-26T12:41:22;17.90;99.90
1225;DHT22;602;48.000;7.840;2024-02-26T12:43:49;17.90;99.90
1225;DHT22;602;48.000;7.840;2024-02-26T12:46:16;17.90;99.90
1225;DHT22;602;48.000;7.840;2024-02-26T12:48:43;18.20;99.90
1225;DHT22;602;48.000;7.840;2024-02-26T12:51:12;18.40;99.90
1225;DHT22;602;48.000;7.840;2024-02-26T12:53:41;18.50;99.90
1225;DHT22;602;48.000;7.840;2024-02-26T12:56:09;18.60;99.90
1225;DHT22;602;48.000;7.840;2024-02-26T12:58:39;18.70;99.90
1225;DHT22;602;48.000;7.840;2024-02-26T13:01:06;18.70;99.90
1225;DHT22;602;48.000;7.840;2024-02-26T13:03:34;18.90;99.90
1225;DHT22;602;48.000;7.840;2024-02-26T13:06:03;18.70;99.90
1225;DHT22;602;48.000;7.840;2024-02-26T13:08:32;18.80;99.90
1225;DHT22;602;48.000;7.840;2024-02-26T13:11:00;18.60;99.90
1225;DHT22;602;48.000;7.840;2024-02-26T13:13:27;18.50;99.90
1225;DHT22;602;48.000;7.840;2024-02-26T13:16:02;18.70;99.90
1225;DHT22;602;48.000;7.840;2024-02-26T13:18:29;18.90;99.90
1225;DHT22;602;48.000;7.840;2024-02-26T13:21:07;19.00;99.90
1225;DHT22;602;48.000;7.840;2024-02-26T13:23:35;19.10;99.90
1225;DHT22;602;48.000;7.840;2024-02-26T13:26:03;19.20;99.90
1225;DHT22;602;48.000;7.840;2024-02-26T13:28:30;19.40;99.90
1225;DHT22;602;48.000;7.840;2024-02-26T13:30:58;19.40;99.90
1225;DHT22;602;48.000;7.840;2024-02-26T13:33:28;19.40;99.90
1225;DHT22;602;48.000;7.840;2024-02-26T13:35:59;19.50;99.90
1225;DHT22;602;48.000;7.840;2024-02-26T13:38:26;19.40;99.90
1225;DHT22;602;48.000;7.840;2024-02-26T13:40:54;19.50;99.90
1225;DHT22;602;48.000;7.840;2024-02-26T13:43:22;19.30;99.90
1225;DHT22;602;48.000;7.840;2024-02-26T13:45:49;19.20;99.90
1225;DHT22;602;48.000;7.840;2024-02-26T13:48:16;19.00;99.90
1225;DHT22;602;48.000;7.840;2024-02-26T13:50:43;19.00;99.90
1225;DHT22;602;48.000;7.840;2024-02-26T13:53:11;19.00;99.90
1225;DHT22;602;48.000;7.840;2024-02-26T13:55:39;19.00;99.90
1225;DHT22;602;48.000;7.840;2024-02-26T13:58:08;18.90;99.90
1225;DHT22;602;48.000;7.840;2024-02-26T14:00:39;18.60;99.90
1225;DHT22;602;48.000;7.840;2024-02-26T14:03:07;18.70;99.90
1225;DHT22;602;48.000;7.840;2024-02-26T14:05:33;18.80;99.90
1225;DHT22;602;48.000;7.840;2024-02-26T14:08:00;18.90;99.90
1225;DHT22;602;48.000;7.840;2024-02-26T14:10:27;19.10;99.90
1225;DHT22;602;48.000;7.840;2024-02-26T14:12:54;19.20;99.90
1225;DHT22;602;48.000;7.840;2024-02-26T14:15:21;19.20;99.90
1225;DHT22;602;48.000;7.840;2024-02-26T14:17:51;19.30;99.90
1225;DHT22;602;48.000;7.840;2024-02-26T14:20:22;19.30;99.90
1225;DHT22;602;48.000;7.840;2024-02-26T14:22:49;19.00;99.90
1225;DHT22;602;48.000;7.840;2024-02-26T14:25:16;18.70;99.90
1225;DHT22;602;48.000;7.840;2024-02-26T14:27:43;18.70;99.90
1225;DHT22;602;48.000;7.840;2024-02-26T14:30:11;18.70;99.90
1225;DHT22;602;48.000;7.840;2024-02-26T14:32:38;18.70;99.90
1225;DHT22;602;48.000;7.840;2024-02-26T14:35:08;18.50;99.90
1225;DHT22;602;48.000;7.840;2024-02-26T14:37:35;18.50;99.90
1225;DHT22;602;48.000;7.840;2024-02-26T14:40:03;18.40;99.90
1225;DHT22;602;48.000;7.840;2024-02-26T14:42:30;18.30;99.90
1225;DHT22;602;48.000;7.840;2024-02-26T14:44:57;18.10;99.90
1225;DHT22;602;48.000;7.840;2024-02-26T14:47:25;18.00;99.90
1225;DHT22;602;48.000;7.840;2024-02-26T14:49:52;18.10;99.90
1225;DHT22;602;48.000;7.840;2024-02-26T14:52:20;18.20;99.90
1225;DHT22;602;48.000;7.840;2024-02-26T14:54:48;18.10;99.90
1225;DHT22;602;48.000;7.840;2024-02-26T14:57:17;18.20;99.90
1225;DHT22;602;48.000;7.840;2024-02-26T14:59:44;18.00;99.90
1225;DHT22;602;48.000;7.840;2024-02-26T15:02:11;17.70;99.90
1225;DHT22;602;48.000;7.840;2024-02-26T15:04:38;17.80;99.90
1225;DHT22;602;48.000;7.840;2024-02-26T15:07:05;17.90;99.90
1225;DHT22;602;48.000;7.840;2024-02-26T15:09:33;18.00;99.90
1225;DHT22;602;48.000;7.840;2024-02-26T15:12:01;17.80;99.90
1225;DHT22;602;48.000;7.840;2024-02-26T15:14:28;17.90;99.90
1225;DHT22;602;48.000;7.840;2024-02-26T15:16:55;17.70;99.90
1225;DHT22;602;48.000;7.840;2024-02-26T15:19:22;17.80;99.90
1225;DHT22;602;48.000;7.840;2024-02-26T15:21:48;17.70;99.90
1225;DHT22;602;48.000;7.840;2024-02-26T15:24:15;17.60;99.90
1225;DHT22;602;48.000;7.840;2024-02-26T15:26:44;17.70;99.90
1225;DHT22;602;48.000;7.840;2024-02-26T15:29:11;17.80;99.90
1225;DHT22;602;48.000;7.840;2024-02-26T15:31:38;17.70;99.90
1225;DHT22;602;48.000;7.840;2024-02-26T15:34:05;17.80;99.90
1225;DHT22;602;48.000;7.840;2024-02-26T15:36:33;17.80;99.90
1225;DHT22;602;48.000;7.840;2024-02-26T15:39:00;17.60;99.90
1225;DHT22;602;48.000;7.840;2024-02-26T15:41:26;17.60;99.90
1225;DHT22;602;48.000;7.840;2024-02-26T15:43:54;17.70;99.90
1225;DHT22;602;48.000;7.840;2024-02-26T15:46:21;17.70;99.90
1225;DHT22;602;48.000;7.840;2024-02-26T15:48:47;17.70;99.90
1225;DHT22;602;48.000;7.840;2024-02-26T15:51:21;17.60;99.90
1225;DHT22;602;48.000;7.840;2024-02-26T15:53:49;17.60;99.90
1225;DHT22;602;48.000;7.840;2024-02-26T15:56:18;17.50;99.90
1225;DHT22;602;48.000;7.840;2024-02-26T15:58:49;17.50;99.90
1225;DHT22;602;48.000;7.840;2024-02-26T16:01:17;17.60;99.90
1225;DHT22;602;48.000;7.840;2024-02-26T16:03:44;17.60;99.90
1225;DHT22;602;48.000;7.840;2024-02-26T16:06:16;17.50;99.90
1225;DHT22;602;48.000;7.840;2024-02-26T16:08:45;17.50;99.90
1225;DHT22;602;48.000;7.840;2024-02-26T16:11:12;17.40;99.90
1225;DHT22;602;48.000;7.840;2024-02-26T16:13:40;17.40;99.90
1225;DHT22;602;48.000;7.840;2024-02-26T16:16:11;17.30;99.90
1225;DHT22;602;48.000;7.840;2024-02-26T16:18:41;17.30;99.90
1225;DHT22;602;48.000;7.840;2024-02-26T16:21:09;17.40;99.90
1225;DHT22;602;48.000;7.840;2024-02-26T16:23:36;17.30;99.90
1225;DHT22;602;48.000;7.840;2024-02-26T16:26:02;17.20;99.90
1225;DHT22;602;48.000;7.840;2024-02-26T16:28:30;17.20;99.90